sensor_id;sensor_type;location;lat;lon;timestamp;temperature;humidity
4749;DHT22;2388;53.582;9.962;2024-01-27T00:01:08;6.60;99.90
4749;DHT22;2388;53.582;9.962;2024-01-27T00:03:34;6.60;99.90
4749;DHT22;2388;53.582;9.962;2024-01-27T00:05:59;6.60;99.90
4749;DHT22;2388;53.582;9.962;2024-01-27T00:08:24;6.70;99.90
4749;DHT22;2388;53.582;9.962;2024-01-27T00:10:50;6.60;99.90
4749;DHT22;2388;53.582;9.962;2024-01-27T00:13:15;6.60;99.90
4749;DHT22;2388;53.582;9.962;2024-01-27T00:15:41;6.60;99.90
4749;DHT22;2388;53.582;9.962;2024-01-27T00:18:06;6.60;99.90
4749;DHT22;2388;53.582;9.962;2024-01-27T00:20:32;6.60;99.90
4749;DHT22;2388;53.582;9.962;2024-01-27T00:22:58;6.60;99.90
4749;DHT22;2388;53.582;9.962;2024-01-27T00:25:23;6.60;99.90
4749;DHT22;2388;53.582;9.962;2024-01-27T00:27:49;6.60;99.90
4749;DHT22;2388;53.582;9.962;2024-01-27T00:30:14;6.60;99.90
4749;DHT22;2388;53.582;9.962;2024-01-27T00:32:40;6.60;99.90
4749;DHT22;2388;53.582;9.962;2024-01-27T00:35:07;6.60;99.90
4749;DHT22;2388;53.582;9.962;2024-01-27T00:37:33;6.60;99.90
4749;DHT22;2388;53.582;9.962;2024-01-27T00:39:59;6.70;99.90
4749;DHT22;2388;53.582;9.962;2024-01-27T00:42:24;6.70;99.90
4749;DHT22;2388;53.582;9.962;2024-01-27T00:44:50;6.70;99.90
4749;DHT22;2388;53.582;9.962;2024-01-27T00:47:16;6.70;99.90
4749;DHT22;2388;53.582;9.962;2024-01-27T00:49:41;6.70;99.90
4749;DHT22;2388;53.582;9.962;2024-01-27T00:52:07;6.70;99.90
4749;DHT22;2388;53.582;9.962;2024-01-27T00:54:32;6.70;99.90
4749;DHT22;2388;53.582;9.962;2024-01-27T00:56:58;6.70;99.90
4749;DHT22;2388;53.582;9.962;2024-01-27T00:59:23;6.70;99.90
4749;DHT22;2388;53.582;9.962;2024-01-27T01:01:49;6.70;99.90
4749;DHT22;2388;53.582;9.962;2024-01-27T01:04:14;6.60;99.90
4749;DHT22;2388;53.582;9.962;2024-01-27T01:06:40;6.70;99.90
4749;DHT22;2388;53.582;9.962;2024-01-27T01:09:06;6.70;99.90
4749;DHT22;2388;53.582;9.962;2024-01-27T01:11:31;6.60;99.90
4749;DHT22;2388;53.582;9.962;2024-01-27T01:13:57;6.60;99.90
4749;DHT22;2388;53.582;9.962;2024-01-27T01:16:22;6.70;99.90
4749;DHT22;2388;53.582;9.962;2024-01-27T01:18:48;6.60;99.90
4749;DHT22;2388;53.582;9.962;2024-01-27T01:21:13;6.70;99.90
4749;DHT22;2388;53.582;9.962;2024-01-27T01:23:39;6.70;99.90
4749;DHT22;2388;53.582;9.962;2024-01-27T01:26:04;6.70;99.90
4749;DHT22;2388;53.582;9.962;2024-01-27T01:28:30;6.70;99.90
4749;DHT22;2388;53.582;9.962;2024-01-27T01:30:57;6.60;99.90
4749;DHT22;2388;53.582;9.962;2024-01-27T01:33:23;6.60;99.90
4749;DHT22;2388;53.582;9.962;2024-01-27T01:35:48;6.60;99.90
4749;DHT22;2388;53.582;9.962;2024-01-27T01:38:14;6.70;99.90
4749;DHT22;2388;53.582;9.962;2024-01-27T01:40:39;6.70;99.90
4749;DHT22;2388;53.582;9.962;2024-01-27T01:43:10;6.70;99.90
4749;DHT22;2388;53.582;9.962;2024-01-27T01:45:36;6.70;99.90
4749;DHT22;2388;53.582;9.962;2024-01-27T01:48:02;6.70;99.90
4749;DHT22;2388;53.582;9.962;2024-01-27T01:50:28;6.70;99.90
4749;DHT22;2388;53.582;9.962;2024-01-27T01:52:54;6.70;99.90
4749;DHT22;2388;53.582;9.962;2024-01-27T01:55:20;6.70;99.90
4749;DHT22;2388;53.582;9.962;2024-01-27T01:57:45;6.70;99.90
4749;DHT22;2388;53.582;9.962;2024-01-27T02:00:12;6.70;99.90
4749;DHT22;2388;53.582;9.962;2024-01-27T02:02:38;6.70;99.90
4749;DHT22;2388;53.582;9.962;2024-01-27T02:05:04;6.70;99.90
4749;DHT22;2388;53.582;9.962;2024-01-27T02:07:29;6.70;99.90
4749;DHT22;2388;53.582;9.962;2024-01-27T02:09:55;6.80;99.90
4749;DHT22;2388;53.582;9.962;2024-01-27T02:12:20;6.80;99.90
4749;DHT22;2388;53.582;9.962;2024-01-27T02:14:46;6.80;99.90
4749;DHT22;2388;53.582;9.962;2024-01-27T02:17:11;6.80;99.90
4749;DHT22;2388;53.582;9.962;2024-01-27T02:19:37;6.80;99.90
4749;DHT22;2388;53.582;9.962;2024-01-27T02:22:02;6.80;99.90
4749;DHT22;2388;53.582;9.962;2024-01-27T02:24:28;6.80;99.90
4749;DHT22;2388;53.582;9.962;2024-01-27T02:26:54;6.80;99.90
4749;DHT22;2388;53.582;9.962;2024-01-27T02:29:19;6.80;99.90
4749;DHT22;2388;53.582;9.962;2024-01-27T02:31:45;6.80;99.90
4749;DHT22;2388;53.582;9.962;2024-01-27T02:34:10;6.80;99.90
4749;DHT22;2388;53.582;9.962;2024-01-27T02:36:36;6.80;99.90
4749;DHT22;2388;53.582;9.962;2024-01-27T02:39:01;6.80;99.90
4749;DHT22;2388;53.582;9.962;2024-01-27T02:41:27;6.70;99.90
4749;DHT22;2388;53.582;9.962;2024-01-27T02:43:53;6.70;99.90
4749;DHT22;2388;53.582;9.962;2024-01-27T02:46:18;6.80;99.90
4749;DHT22;2388;53.582;9.962;2024-01-27T02:48:44;6.70;99.90
4749;DHT22;2388;53.582;9.962;2024-01-27T02:51:10;6.60;99.90
4749;DHT22;2388;53.582;9.962;2024-01-27T02:53:36;6.60;99.90
4749;DHT22;2388;53.582;9.962;2024-01-27T02:56:01;6.50;99.90
4749;DHT22;2388;53.582;9.962;2024-01-27T02:58:27;6.50;99.90
4749;DHT22;2388;53.582;9.962;2024-01-27T03:00:52;6.60;99.90
4749;DHT22;2388;53.582;9.962;2024-01-27T03:03:18;6.60;99.90
4749;DHT22;2388;53.582;9.962;2024-01-27T03:05:44;6.60;99.90
4749;DHT22;2388;53.582;9.962;2024-01-27T03:08:09;6.60;99.90
4749;DHT22;2388;53.582;9.962;2024-01-27T03:10:35;6.60;99.90
4749;DHT22;2388;53.582;9.962;2024-01-27T03:13:00;6.60;99.90
4749;DHT22;2388;53.582;9.962;2024-01-27T03:15:26;6.60;99.90
4749;DHT22;2388;53.582;9.962;2024-01-27T03:17:52;6.60;99.90
4749;DHT22;2388;53.582;9.962;2024-01-27T03:20:17;6.60;99.90
4749;DHT22;2388;53.582;9.962;2024-01-27T03:22:43;6.60;99.90
4749;DHT22;2388;53.582;9.962;2024-01-27T03:25:09;6.60;99.90
4749;DHT22;2388;53.582;9.962;2024-01-27T03:27:36;6.60;99.90
4749;DHT22;2388;53.582;9.962;2024-01-27T03:30:03;6.50;99.90
4749;DHT22;2388;53.582;9.962;2024-01-27T03:32:29;6.40;99.90
4749;DHT22;2388;53.582;9.962;2024-01-27T03:34:58;6.30;99.90
4749;DHT22;2388;53.582;9.962;2024-01-27T03:37:23;6.20;99.90
4749;DHT22;2388;53.582;9.962;2024-01-27T03:39:49;6.20;99.90
4749;DHT22;2388;53.582;9.962;2024-01-27T03:42:14;6.20;99.90
4749;DHT22;2388;53.582;9.962;2024-01-27T03:44:40;6.30;99.90
4749;DHT22;2388;53.582;9.962;2024-01-27T03:47:05;6.30;99.90
4749;DHT22;2388;53.582;9.962;2024-01-27T03:49:30;6.20;99.90
4749;DHT22;2388;53.582;9.962;2024-01-27T03:51:56;6.30;99.90
4749;DHT22;2388;53.582;9.962;2024-01-27T03:54:21;6.30;99.90
4749;DHT22;2388;53.582;9.962;2024-01-27T03:56:47;6.40;99.90
4749;DHT22;2388;53.582;9.962;2024-01-27T03:59:12;6.40;99.90
4749;DHT22;2388;53.582;9.962;2024-01-27T04:01:38;6.30;99.90
4749;DHT22;2388;53.582;9.962;2024-01-27T04:04:03;6.20;99.90
4749;DHT22;2388;53.582;9.962;2024-01-27T04:06:29;6.10;99.90
4749;DHT22;2388;53.582;9.962;2024-01-27T04:08:54;6.00;99.90
4749;DHT22;2388;53.582;9.962;2024-01-27T04:11:21;6.00;99.90
4749;DHT22;2388;53.582;9.962;2024-01-27T04:13:48;5.90;99.90
4749;DHT22;2388;53.582;9.962;2024-01-27T04:16:14;5.90;99.90
4749;DHT22;2388;53.582;9.962;2024-01-27T04:18:42;6.00;99.90
4749;DHT22;2388;53.582;9.962;2024-01-27T04:21:07;6.10;99.90
4749;DHT22;2388;53.582;9.962;2024-01-27T04:23:33;6.00;99.90
4749;DHT22;2388;53.582;9.962;2024-01-27T04:25:59;6.00;99.90
4749;DHT22;2388;53.582;9.962;2024-01-27T04:28:24;6.00;99.90
4749;DHT22;2388;53.582;9.962;2024-01-27T04:30:50;6.00;99.90
4749;DHT22;2388;53.582;9.962;2024-01-27T04:33:15;5.90;99.90
4749;DHT22;2388;53.582;9.962;2024-01-27T04:35:41;5.90;99.90
4749;DHT22;2388;53.582;9.962;2024-01-27T04:38:08;5.80;99.90
4749;DHT22;2388;53.582;9.962;2024-01-27T04:40:34;5.70;99.90
4749;DHT22;2388;53.582;9.962;2024-01-27T04:43:01;5.70;99.90
4749;DHT22;2388;53.582;9.962;2024-01-27T04:45:26;5.60;99.90
4749;DHT22;2388;53.582;9.962;2024-01-27T04:47:52;5.60;99.90
4749;DHT22;2388;53.582;9.962;2024-01-27T04:50:19;5.50;99.90
4749;DHT22;2388;53.582;9.962;2024-01-27T04:52:45;5.50;99.90
4749;DHT22;2388;53.582;9.962;2024-01-27T04:55:10;5.50;99.90
4749;DHT22;2388;53.582;9.962;2024-01-27T04:57:36;5.50;99.90
4749;DHT22;2388;53.582;9.962;2024-01-27T05:00:01;5.50;99.90
4749;DHT22;2388;53.582;9.962;2024-01-27T05:02:27;5.50;99.90
4749;DHT22;2388;53.582;9.962;2024-01-27T05:04:53;5.50;99.90
4749;DHT22;2388;53.582;9.962;2024-01-27T05:07:18;5.50;99.90
4749;DHT22;2388;53.582;9.962;2024-01-27T05:09:44;5.50;99.90
4749;DHT22;2388;53.582;9.962;2024-01-27T05:12:09;5.40;99.90
4749;DHT22;2388;53.582;9.962;2024-01-27T05:14:35;5.40;99.90
4749;DHT22;2388;53.582;9.962;2024-01-27T05:17:00;5.40;99.90
4749;DHT22;2388;53.582;9.962;2024-01-27T05:19:25;5.40;99.90
4749;DHT22;2388;53.582;9.962;2024-01-27T05:21:51;5.40;99.90
4749;DHT22;2388;53.582;9.962;2024-01-27T05:24:17;5.40;99.90
4749;DHT22;2388;53.582;9.962;2024-01-27T05:26:42;5.30;99.90
4749;DHT22;2388;53.582;9.962;2024-01-27T05:29:08;5.30;99.90
4749;DHT22;2388;53.582;9.962;2024-01-27T05:31:34;5.30;99.90
4749;DHT22;2388;53.582;9.962;2024-01-27T05:34:00;5.30;99.90
4749;DHT22;2388;53.582;9.962;2024-01-27T05:36:25;5.20;99.90
4749;DHT22;2388;53.582;9.962;2024-01-27T05:38:51;5.20;99.90
4749;DHT22;2388;53.582;9.962;2024-01-27T05:41:17;5.20;99.90
4749;DHT22;2388;53.582;9.962;2024-01-27T05:43:42;5.20;99.90
4749;DHT22;2388;53.582;9.962;2024-01-27T05:46:09;5.10;99.90
4749;DHT22;2388;53.582;9.962;2024-01-27T05:48:35;5.10;99.90
4749;DHT22;2388;53.582;9.962;2024-01-27T05:51:01;5.10;99.90
4749;DHT22;2388;53.582;9.962;2024-01-27T05:53:27;5.00;99.90
4749;DHT22;2388;53.582;9.962;2024-01-27T05:55:53;5.00;99.90
4749;DHT22;2388;53.582;9.962;2024-01-27T05:58:24;5.00;99.90
4749;DHT22;2388;53.582;9.962;2024-01-27T06:00:50;5.10;99.90
4749;DHT22;2388;53.582;9.962;2024-01-27T06:03:15;5.10;99.90
4749;DHT22;2388;53.582;9.962;2024-01-27T06:05:42;5.10;99.90
4749;DHT22;2388;53.582;9.962;2024-01-27T06:08:08;5.00;99.90
4749;DHT22;2388;53.582;9.962;2024-01-27T06:10:33;5.00;99.90
4749;DHT22;2388;53.582;9.962;2024-01-27T06:13:02;5.00;99.90
4749;DHT22;2388;53.582;9.962;2024-01-27T06:15:27;5.00;99.90
4749;DHT22;2388;53.582;9.962;2024-01-27T06:17:53;5.00;99.90
4749;DHT22;2388;53.582;9.962;2024-01-27T06:20:18;4.90;99.90
4749;DHT22;2388;53.582;9.962;2024-01-27T06:22:44;4.90;99.90
4749;DHT22;2388;53.582;9.962;2024-01-27T06:25:09;4.80;99.90
4749;DHT22;2388;53.582;9.962;2024-01-27T06:27:36;4.80;99.90
4749;DHT22;2388;53.582;9.962;2024-01-27T06:30:03;4.80;99.90
4749;DHT22;2388;53.582;9.962;2024-01-27T06:32:29;4.70;99.90
4749;DHT22;2388;53.582;9.962;2024-01-27T06:34:54;4.80;99.90
4749;DHT22;2388;53.582;9.962;2024-01-27T06:37:20;4.70;99.90
4749;DHT22;2388;53.582;9.962;2024-01-27T06:39:45;4.70;99.90
4749;DHT22;2388;53.582;9.962;2024-01-27T06:42:11;4.60;99.90
4749;DHT22;2388;53.582;9.962;2024-01-27T06:44:36;4.60;99.90
4749;DHT22;2388;53.582;9.962;2024-01-27T06:47:02;4.60;99.90
4749;DHT22;2388;53.582;9.962;2024-01-27T06:49:28;4.50;99.90
4749;DHT22;2388;53.582;9.962;2024-01-27T06:51:53;4.50;99.90
4749;DHT22;2388;53.582;9.962;2024-01-27T06:54:18;4.50;99.90
4749;DHT22;2388;53.582;9.962;2024-01-27T06:56:44;4.50;99.90
4749;DHT22;2388;53.582;9.962;2024-01-27T06:59:09;4.50;99.90
4749;DHT22;2388;53.582;9.962;2024-01-27T07:01:35;4.50;99.90
4749;DHT22;2388;53.582;9.962;2024-01-27T07:04:00;4.60;99.90
4749;DHT22;2388;53.582;9.962;2024-01-27T07:06:26;4.70;99.90
4749;DHT22;2388;53.582;9.962;2024-01-27T07:08:51;4.90;99.90
4749;DHT22;2388;53.582;9.962;2024-01-27T07:11:17;5.00;99.90
4749;DHT22;2388;53.582;9.962;2024-01-27T07:13:42;5.00;99.90
4749;DHT22;2388;53.582;9.962;2024-01-27T07:16:08;5.10;99.90
4749;DHT22;2388;53.582;9.962;2024-01-27T07:18:33;5.10;99.90
4749;DHT22;2388;53.582;9.962;2024-01-27T07:21:00;5.10;99.90
4749;DHT22;2388;53.582;9.962;2024-01-27T07:23:26;5.10;99.90
4749;DHT22;2388;53.582;9.962;2024-01-27T07:25:52;5.00;99.90
4749;DHT22;2388;53.582;9.962;2024-01-27T07:28:17;5.10;99.90
4749;DHT22;2388;53.582;9.962;2024-01-27T07:30:44;5.10;99.90
4749;DHT22;2388;53.582;9.962;2024-01-27T07:33:09;5.00;99.90
4749;DHT22;2388;53.582;9.962;2024-01-27T07:35:35;5.00;99.90
4749;DHT22;2388;53.582;9.962;2024-01-27T07:38:01;4.90;99.90
4749;DHT22;2388;53.582;9.962;2024-01-27T07:40:26;4.90;99.90
4749;DHT22;2388;53.582;9.962;2024-01-27T07:42:52;4.90;99.90
4749;DHT22;2388;53.582;9.962;2024-01-27T07:45:17;4.80;99.90
4749;DHT22;2388;53.582;9.962;2024-01-27T07:47:42;4.80;99.90
4749;DHT22;2388;53.582;9.962;2024-01-27T07:50:08;4.80;99.90
4749;DHT22;2388;53.582;9.962;2024-01-27T07:52:35;4.90;99.90
4749;DHT22;2388;53.582;9.962;2024-01-27T07:55:00;4.90;99.90
4749;DHT22;2388;53.582;9.962;2024-01-27T07:57:27;5.00;99.90
4749;DHT22;2388;53.582;9.962;2024-01-27T07:59:53;4.90;99.90
4749;DHT22;2388;53.582;9.962;2024-01-27T08:02:18;5.00;99.90
4749;DHT22;2388;53.582;9.962;2024-01-27T08:04:43;5.10;99.90
4749;DHT22;2388;53.582;9.962;2024-01-27T08:07:09;5.20;99.90
4749;DHT22;2388;53.582;9.962;2024-01-27T08:09:35;5.20;99.90
4749;DHT22;2388;53.582;9.962;2024-01-27T08:12:01;5.20;99.90
4749;DHT22;2388;53.582;9.962;2024-01-27T08:14:27;5.30;99.90
4749;DHT22;2388;53.582;9.962;2024-01-27T08:16:55;5.20;99.90
4749;DHT22;2388;53.582;9.962;2024-01-27T08:19:21;5.20;99.90
4749;DHT22;2388;53.582;9.962;2024-01-27T08:21:46;5.40;99.90
4749;DHT22;2388;53.582;9.962;2024-01-27T08:24:13;5.40;99.90
4749;DHT22;2388;53.582;9.962;2024-01-27T08:26:39;5.50;99.90
4749;DHT22;2388;53.582;9.962;2024-01-27T08:29:04;5.40;99.90
4749;DHT22;2388;53.582;9.962;2024-01-27T08:31:30;5.30;99.90
4749;DHT22;2388;53.582;9.962;2024-01-27T08:33:55;5.30;99.90
4749;DHT22;2388;53.582;9.962;2024-01-27T08:36:21;5.30;99.90
4749;DHT22;2388;53.582;9.962;2024-01-27T08:38:46;5.40;99.90
4749;DHT22;2388;53.582;9.962;2024-01-27T08:41:12;5.30;99.90
4749;DHT22;2388;53.582;9.962;2024-01-27T08:43:37;5.30;99.90
4749;DHT22;2388;53.582;9.962;2024-01-27T08:46:03;5.20;99.90
4749;DHT22;2388;53.582;9.962;2024-01-27T08:48:28;5.20;99.90
4749;DHT22;2388;53.582;9.962;2024-01-27T08:50:54;5.20;99.90
4749;DHT22;2388;53.582;9.962;2024-01-27T08:53:19;5.10;99.90
4749;DHT22;2388;53.582;9.962;2024-01-27T08:55:45;5.10;99.90
4749;DHT22;2388;53.582;9.962;2024-01-27T08:58:10;5.00;99.90
4749;DHT22;2388;53.582;9.962;2024-01-27T09:00:36;5.10;99.90
4749;DHT22;2388;53.582;9.962;2024-01-27T09:03:01;5.00;99.90
4749;DHT22;2388;53.582;9.962;2024-01-27T09:05:28;5.20;99.90
4749;DHT22;2388;53.582;9.962;2024-01-27T09:07:54;5.20;99.90
4749;DHT22;2388;53.582;9.962;2024-01-27T09:10:19;5.30;99.90
4749;DHT22;2388;53.582;9.962;2024-01-27T09:12:45;5.40;99.90
4749;DHT22;2388;53.582;9.962;2024-01-27T09:15:11;5.40;99.90
4749;DHT22;2388;53.582;9.962;2024-01-27T09:17:36;5.40;99.90
4749;DHT22;2388;53.582;9.962;2024-01-27T09:20:02;5.50;99.90
4749;DHT22;2388;53.582;9.962;2024-01-27T09:22:28;5.50;99.90
4749;DHT22;2388;53.582;9.962;2024-01-27T09:24:53;5.60;99.90
4749;DHT22;2388;53.582;9.962;2024-01-27T09:27:20;5.60;99.90
4749;DHT22;2388;53.582;9.962;2024-01-27T09:29:45;5.50;99.90
4749;DHT22;2388;53.582;9.962;2024-01-27T09:32:11;5.50;99.90
4749;DHT22;2388;53.582;9.962;2024-01-27T09:34:37;5.50;99.90
4749;DHT22;2388;53.582;9.962;2024-01-27T09:37:03;5.70;99.90
4749;DHT22;2388;53.582;9.962;2024-01-27T09:39:28;5.70;99.90
4749;DHT22;2388;53.582;9.962;2024-01-27T09:41:54;5.70;99.90
4749;DHT22;2388;53.582;9.962;2024-01-27T09:44:21;5.70;99.90
4749;DHT22;2388;53.582;9.962;2024-01-27T09:46:47;5.70;99.90
4749;DHT22;2388;53.582;9.962;2024-01-27T09:49:14;5.80;99.90
4749;DHT22;2388;53.582;9.962;2024-01-27T09:51:41;5.90;99.90
4749;DHT22;2388;53.582;9.962;2024-01-27T09:54:07;5.90;99.90
4749;DHT22;2388;53.582;9.962;2024-01-27T09:56:33;5.90;99.90
4749;DHT22;2388;53.582;9.962;2024-01-27T09:58:59;5.90;99.90
4749;DHT22;2388;53.582;9.962;2024-01-27T10:01:26;5.60;99.90
4749;DHT22;2388;53.582;9.962;2024-01-27T10:03:54;5.60;99.90
4749;DHT22;2388;53.582;9.962;2024-01-27T10:06:20;5.50;99.90
4749;DHT22;2388;53.582;9.962;2024-01-27T10:08:55;5.60;99.90
4749;DHT22;2388;53.582;9.962;2024-01-27T10:11:21;5.60;99.90
4749;DHT22;2388;53.582;9.962;2024-01-27T10:13:55;5.60;99.90
4749;DHT22;2388;53.582;9.962;2024-01-27T10:16:21;5.60;99.90
4749;DHT22;2388;53.582;9.962;2024-01-27T10:18:47;5.60;99.90
4749;DHT22;2388;53.582;9.962;2024-01-27T10:21:13;5.70;99.90
4749;DHT22;2388;53.582;9.962;2024-01-27T10:23:39;5.70;99.90
4749;DHT22;2388;53.582;9.962;2024-01-27T10:26:05;5.80;99.90
4749;DHT22;2388;53.582;9.962;2024-01-27T10:28:30;5.90;99.90
4749;DHT22;2388;53.582;9.962;2024-01-27T10:31:10;5.90;99.90
4749;DHT22;2388;53.582;9.962;2024-01-27T10:33:36;5.90;99.90
4749;DHT22;2388;53.582;9.962;2024-01-27T10:36:02;5.90;99.90
4749;DHT22;2388;53.582;9.962;2024-01-27T10:38:37;6.00;99.90
4749;DHT22;2388;53.582;9.962;2024-01-27T10:41:09;6.00;99.90
4749;DHT22;2388;53.582;9.962;2024-01-27T10:43:36;6.10;99.90
4749;DHT22;2388;53.582;9.962;2024-01-27T10:46:07;6.10;99.90
4749;DHT22;2388;53.582;9.962;2024-01-27T10:48:36;6.10;99.90
4749;DHT22;2388;53.582;9.962;2024-01-27T10:51:08;6.20;99.90
4749;DHT22;2388;53.582;9.962;2024-01-27T10:53:35;6.30;99.90
4749;DHT22;2388;53.582;9.962;2024-01-27T10:56:03;6.40;99.90
4749;DHT22;2388;53.582;9.962;2024-01-27T10:58:33;6.50;99.90
4749;DHT22;2388;53.582;9.962;2024-01-27T11:01:13;6.50;99.90
4749;DHT22;2388;53.582;9.962;2024-01-27T11:03:39;6.70;99.90
4749;DHT22;2388;53.582;9.962;2024-01-27T11:06:06;6.80;99.90
4749;DHT22;2388;53.582;9.962;2024-01-27T11:08:34;6.90;99.90
4749;DHT22;2388;53.582;9.962;2024-01-27T11:11:00;7.10;99.90
4749;DHT22;2388;53.582;9.962;2024-01-27T11:13:28;7.20;99.90
4749;DHT22;2388;53.582;9.962;2024-01-27T11:15:54;7.10;99.90
4749;DHT22;2388;53.582;9.962;2024-01-27T11:18:20;7.10;99.90
4749;DHT22;2388;53.582;9.962;2024-01-27T11:20:45;7.20;99.90
4749;DHT22;2388;53.582;9.962;2024-01-27T11:23:12;7.30;99.90
4749;DHT22;2388;53.582;9.962;2024-01-27T11:25:39;7.30;99.90
4749;DHT22;2388;53.582;9.962;2024-01-27T11:28:12;7.30;99.90
4749;DHT22;2388;53.582;9.962;2024-01-27T11:30:46;7.40;99.90
4749;DHT22;2388;53.582;9.962;2024-01-27T11:33:11;7.40;99.90
4749;DHT22;2388;53.582;9.962;2024-01-27T11:35:37;7.50;99.90
4749;DHT22;2388;53.582;9.962;2024-01-27T11:38:02;7.60;99.90
4749;DHT22;2388;53.582;9.962;2024-01-27T11:40:28;7.60;99.90
4749;DHT22;2388;53.582;9.962;2024-01-27T11:42:58;7.70;99.90
4749;DHT22;2388;53.582;9.962;2024-01-27T11:45:24;7.70;99.90
4749;DHT22;2388;53.582;9.962;2024-01-27T11:47:49;7.70;99.90
4749;DHT22;2388;53.582;9.962;2024-01-27T11:50:17;7.70;99.90
4749;DHT22;2388;53.582;9.962;2024-01-27T11:52:42;7.70;99.90
4749;DHT22;2388;53.582;9.962;2024-01-27T11:55:08;7.70;99.90
4749;DHT22;2388;53.582;9.962;2024-01-27T11:57:34;7.70;99.90
4749;DHT22;2388;53.582;9.962;2024-01-27T11:59:59;7.80;99.90
4749;DHT22;2388;53.582;9.962;2024-01-27T12:02:25;7.70;99.90
4749;DHT22;2388;53.582;9.962;2024-01-27T12:04:51;7.80;99.90
4749;DHT22;2388;53.582;9.962;2024-01-27T12:07:17;7.80;99.90
4749;DHT22;2388;53.582;9.962;2024-01-27T12:09:44;7.90;99.90
4749;DHT22;2388;53.582;9.962;2024-01-27T12:12:12;8.00;99.90
4749;DHT22;2388;53.582;9.962;2024-01-27T12:14:41;8.10;99.90
4749;DHT22;2388;53.582;9.962;2024-01-27T12:17:08;8.10;99.90
4749;DHT22;2388;53.582;9.962;2024-01-27T12:19:35;8.00;99.90
4749;DHT22;2388;53.582;9.962;2024-01-27T12:22:02;8.00;99.90
4749;DHT22;2388;53.582;9.962;2024-01-27T12:24:27;8.00;99.90
4749;DHT22;2388;53.582;9.962;2024-01-27T12:26:54;8.10;99.90
4749;DHT22;2388;53.582;9.962;2024-01-27T12:29:20;8.10;99.90
4749;DHT22;2388;53.582;9.962;2024-01-27T12:31:46;8.20;99.90
4749;DHT22;2388;53.582;9.962;2024-01-27T12:34:12;8.20;99.90
4749;DHT22;2388;53.582;9.962;2024-01-27T12:36:41;8.30;99.90
4749;DHT22;2388;53.582;9.962;2024-01-27T12:39:08;8.30;99.90
4749;DHT22;2388;53.582;9.962;2024-01-27T12:41:34;8.40;99.90
4749;DHT22;2388;53.582;9.962;2024-01-27T12:44:00;8.50;99.90
4749;DHT22;2388;53.582;9.962;2024-01-27T12:46:26;8.60;99.90
4749;DHT22;2388;53.582;9.962;2024-01-27T12:48:52;8.70;99.90
4749;DHT22;2388;53.582;9.962;2024-01-27T12:51:18;8.70;99.90
4749;DHT22;2388;53.582;9.962;2024-01-27T12:53:44;8.70;99.90
4749;DHT22;2388;53.582;9.962;2024-01-27T12:56:10;8.60;99.90
4749;DHT22;2388;53.582;9.962;2024-01-27T12:58:37;8.60;99.90
4749;DHT22;2388;53.582;9.962;2024-01-27T13:01:02;8.60;99.90
4749;DHT22;2388;53.582;9.962;2024-01-27T13:03:28;8.60;99.90
4749;DHT22;2388;53.582;9.962;2024-01-27T13:05:55;8.60;99.90
4749;DHT22;2388;53.582;9.962;2024-01-27T13:08:21;8.80;99.90
4749;DHT22;2388;53.582;9.962;2024-01-27T13:10:47;8.90;99.90
4749;DHT22;2388;53.582;9.962;2024-01-27T13:13:12;8.80;99.90
4749;DHT22;2388;53.582;9.962;2024-01-27T13:15:38;8.80;99.90
4749;DHT22;2388;53.582;9.962;2024-01-27T13:18:04;8.90;99.90
4749;DHT22;2388;53.582;9.962;2024-01-27T13:20:29;9.10;99.90
4749;DHT22;2388;53.582;9.962;2024-01-27T13:22:55;9.20;99.90
4749;DHT22;2388;53.582;9.962;2024-01-27T13:25:20;9.20;99.90
4749;DHT22;2388;53.582;9.962;2024-01-27T13:27:46;9.10;99.90
4749;DHT22;2388;53.582;9.962;2024-01-27T13:30:12;9.00;99.90
4749;DHT22;2388;53.582;9.962;2024-01-27T13:32:38;9.00;99.90
4749;DHT22;2388;53.582;9.962;2024-01-27T13:35:04;9.10;99.90
4749;DHT22;2388;53.582;9.962;2024-01-27T13:37:30;9.00;99.90
4749;DHT22;2388;53.582;9.962;2024-01-27T13:39:59;9.10;99.90
4749;DHT22;2388;53.582;9.962;2024-01-27T13:42:25;9.10;99.90
4749;DHT22;2388;53.582;9.962;2024-01-27T13:44:51;9.00;99.90
4749;DHT22;2388;53.582;9.962;2024-01-27T13:47:16;8.90;99.90
4749;DHT22;2388;53.582;9.962;2024-01-27T13:49:43;8.90;99.90
4749;DHT22;2388;53.582;9.962;2024-01-27T13:52:08;8.80;99.90
4749;DHT22;2388;53.582;9.962;2024-01-27T13:54:34;8.70;99.90
4749;DHT22;2388;53.582;9.962;2024-01-27T13:57:01;8.50;99.90
4749;DHT22;2388;53.582;9.962;2024-01-27T13:59:26;8.50;99.90
4749;DHT22;2388;53.582;9.962;2024-01-27T14:01:52;8.50;99.90
4749;DHT22;2388;53.582;9.962;2024-01-27T14:04:18;8.40;99.90
4749;DHT22;2388;53.582;9.962;2024-01-27T14:06:44;8.40;99.90
4749;DHT22;2388;53.582;9.962;2024-01-27T14:09:10;8.30;99.90
4749;DHT22;2388;53.582;9.962;2024-01-27T14:11:35;8.20;99.90
4749;DHT22;2388;53.582;9.962;2024-01-27T14:14:00;8.00;99.90
4749;DHT22;2388;53.582;9.962;2024-01-27T14:16:26;8.00;99.90
4749;DHT22;2388;53.582;9.962;2024-01-27T14:18:52;8.00;99.90
4749;DHT22;2388;53.582;9.962;2024-01-27T14:21:17;8.00;99.90
4749;DHT22;2388;53.582;9.962;2024-01-27T14:23:43;8.00;99.90
4749;DHT22;2388;53.582;9.962;2024-01-27T14:26:08;8.00;99.90
4749;DHT22;2388;53.582;9.962;2024-01-27T14:28:40;7.90;99.90
4749;DHT22;2388;53.582;9.962;2024-01-27T14:31:06;7.90;99.90
4749;DHT22;2388;53.582;9.962;2024-01-27T14:33:32;7.90;99.90
4749;DHT22;2388;53.582;9.962;2024-01-27T14:35:57;7.90;99.90
4749;DHT22;2388;53.582;9.962;2024-01-27T14:38:24;7.90;99.90
4749;DHT22;2388;53.582;9.962;2024-01-27T14:40:49;7.90;99.90
4749;DHT22;2388;53.582;9.962;2024-01-27T14:43:15;7.90;99.90
4749;DHT22;2388;53.582;9.962;2024-01-27T14:45:44;7.80;99.90
4749;DHT22;2388;53.582;9.962;2024-01-27T14:48:09;7.80;99.90
4749;DHT22;2388;53.582;9.962;2024-01-27T14:50:35;7.80;99.90
4749;DHT22;2388;53.582;9.962;2024-01-27T14:53:00;7.80;99.90
4749;DHT22;2388;53.582;9.962;2024-01-27T14:55:27;7.90;99.90
4749;DHT22;2388;53.582;9.962;2024-01-27T14:57:53;7.80;99.90
4749;DHT22;2388;53.582;9.962;2024-01-27T15:00:19;7.80;99.90
4749;DHT22;2388;53.582;9.962;2024-01-27T15:02:44;7.80;99.90
4749;DHT22;2388;53.582;9.962;2024-01-27T15:05:10;7.70;99.90
4749;DHT22;2388;53.582;9.962;2024-01-27T15:07:36;7.70;99.90
4749;DHT22;2388;53.582;9.962;2024-01-27T15:10:01;7.70;99.90
4749;DHT22;2388;53.582;9.962;2024-01-27T15:12:27;7.70;99.90
4749;DHT22;2388;53.582;9.962;2024-01-27T15:14:52;7.60;99.90
4749;DHT22;2388;53.582;9.962;2024-01-27T15:17:19;7.60;99.90
4749;DHT22;2388;53.582;9.962;2024-01-27T15:19:44;7.60;99.90
4749;DHT22;2388;53.582;9.962;2024-01-27T15:22:10;7.60;99.90
4749;DHT22;2388;53.582;9.962;2024-01-27T15:24:35;7.60;99.90
4749;DHT22;2388;53.582;9.962;2024-01-27T15:27:03;7.50;99.90
4749;DHT22;2388;53.582;9.962;2024-01-27T15:29:29;7.50;99.90
4749;DHT22;2388;53.582;9.962;2024-01-27T15:31:54;7.50;99.90
4749;DHT22;2388;53.582;9.962;2024-01-27T15:34:21;7.50;99.90
4749;DHT22;2388;53.582;9.962;2024-01-27T15:36:46;7.40;99.90
4749;DHT22;2388;53.582;9.962;2024-01-27T15:39:12;7.40;99.90
4749;DHT22;2388;53.582;9.962;2024-01-27T15:41:37;7.40;99.90
4749;DHT22;2388;53.582;9.962;2024-01-27T15:44:03;7.40;99.90
4749;DHT22;2388;53.582;9.962;2024-01-27T15:46:29;7.40;99.90
4749;DHT22;2388;53.582;9.962;2024-01-27T15:48:55;7.30;99.90
4749;DHT22;2388;53.582;9.962;2024-01-27T15:51:20;7.30;99.90
4749;DHT22;2388;53.582;9.962;2024-01-27T15:53:46;7.30;99.90
4749;DHT22;2388;53.582;9.962;2024-01-27T15:56:12;7.20;99.90
4749;DHT22;2388;53.582;9.962;2024-01-27T15:58:37;7.20;99.90
4749;DHT22;2388;53.582;9.962;2024-01-27T16:01:03;7.20;99.90
4749;DHT22;2388;53.582;9.962;2024-01-27T16:03:29;7.20;99.90
4749;DHT22;2388;53.582;9.962;2024-01-27T16:05:54;7.20;99.90
4749;DHT22;2388;53.582;9.962;2024-01-27T16:08:20;7.20;99.90